sensor_id;sensor_type;location;lat;lon;timestamp;pressure;altitude;pressure_sealevel;temperature;humidity
70943;BME280;59154;51.970;5.650;2022-12-10T00:00:04;100800;;;0.40172;89.1
70943;BME280;59154;51.970;5.650;2022-12-10T00:05:03;100800;;;0.43731;88.7
70943;BME280;59154;51.970;5.650;2022-12-10T00:10:04;100800;;;0.46782;88.7
70943;BME280;59154;51.970;5.650;2022-12-10T00:15:03;100800;;;0.42714;88.9
70943;BME280;59154;51.970;5.650;2022-12-10T00:20:04;100800;;;0.48308;89.1
70943;BME280;59154;51.970;5.650;2022-12-10T00:25:03;100800;;;0.47799;89.0
70943;BME280;59154;51.970;5.650;2022-12-10T00:30:04;100800;;;0.48308;89.2
70943;BME280;59154;51.970;5.650;2022-12-10T00:35:03;100800;;;0.44748;89.3
70943;BME280;59154;51.970;5.650;2022-12-10T00:40:04;100800;;;0.41697;89.6
70943;BME280;59154;51.970;5.650;2022-12-10T00:45:03;100800;;;0.31527;89.8
70943;BME280;59154;51.970;5.650;2022-12-10T00:50:03;100800;;;0.26442;89.9
70943;BME280;59154;51.970;5.650;2022-12-10T00:55:03;100800;;;0.19831;90.0
70943;BME280;59154;51.970;5.650;2022-12-10T01:00:04;100800;;;0.25425;89.8
70943;BME280;59154;51.970;5.650;2022-12-10T01:05:03;100800;;;0.13221;90.3
70943;BME280;59154;51.970;5.650;2022-12-10T01:10:03;100800;;;0.05085;90.3
70943;BME280;59154;51.970;5.650;2022-12-10T01:15:04;100800;;;-0.02034;90.7
70943;BME280;59154;51.970;5.650;2022-12-10T01:20:04;100800;;;-0.01017;90.6
70943;BME280;59154;51.970;5.650;2022-12-10T01:25:03;100800;;;-0.04068;90.9
70943;BME280;59154;51.970;5.650;2022-12-10T01:30:05;100800;;;0.01525;90.8
70943;BME280;59154;51.970;5.650;2022-12-10T01:35:02;100800;;;0.06102;90.7
70943;BME280;59154;51.970;5.650;2022-12-10T01:40:04;100800;;;0.09153;90.2
70943;BME280;59154;51.970;5.650;2022-12-10T01:45:08;100800;;;0.09661;90.3
70943;BME280;59154;51.970;5.650;2022-12-10T01:50:05;100800;;;0.12204;90.4
70943;BME280;59154;51.970;5.650;2022-12-10T01:55:08;100800;;;0.11187;90.3
70943;BME280;59154;51.970;5.650;2022-12-10T02:00:05;100800;;;0.07119;90.3
70943;BME280;59154;51.970;5.650;2022-12-10T02:05:10;100800;;;0.1017;90.1
70943;BME280;59154;51.970;5.650;2022-12-10T02:10:08;100800;;;0.04576;90.0
70943;BME280;59154;51.970;5.650;2022-12-10T02:15:08;100800;;;0.06102;90.1
70943;BME280;59154;51.970;5.650;2022-12-10T02:20:07;100800;;;0.04576;90.4
70943;BME280;59154;51.970;5.650;2022-12-10T02:25:04;100800;;;-0.00508;90.7
70943;BME280;59154;51.970;5.650;2022-12-10T02:30:04;100800;;;-0.09661;90.7
70943;BME280;59154;51.970;5.650;2022-12-10T02:35:07;100800;;;-0.05593;90.7
70943;BME280;59154;51.970;5.650;2022-12-10T02:40:07;100800;;;-0.09661;91.2
70943;BME280;59154;51.970;5.650;2022-12-10T02:45:04;100800;;;-0.14238;91.5
70943;BME280;59154;51.970;5.650;2022-12-10T02:50:03;100800;;;-0.15763;91.5
70943;BME280;59154;51.970;5.650;2022-12-10T02:55:03;100800;;;-0.09661;91.2
70943;BME280;59154;51.970;5.650;2022-12-10T03:00:07;100800;;;-0.15763;91.5
70943;BME280;59154;51.970;5.650;2022-12-10T03:05:07;100800;;;-0.11695;91.3
70943;BME280;59154;51.970;5.650;2022-12-10T03:10:07;100800;;;-0.11695;91.2
70943;BME280;59154;51.970;5.650;2022-12-10T03:15:06;100800;;;-0.07119;91.1
70943;BME280;59154;51.970;5.650;2022-12-10T03:20:06;100800;;;-0.04068;91.0
70943;BME280;59154;51.970;5.650;2022-12-10T03:25:04;100800;;;0.04576;90.6
70943;BME280;59154;51.970;5.650;2022-12-10T03:30:03;100800;;;0.12712;90.5
70943;BME280;59154;51.970;5.650;2022-12-10T03:35:04;100800;;;0.19323;90.3
70943;BME280;59154;51.970;5.650;2022-12-10T03:40:05;100800;;;0.23391;90.4
70943;BME280;59154;51.970;5.650;2022-12-10T03:45:03;100800;;;0.24916;90.5
70943;BME280;59154;51.970;5.650;2022-12-10T03:50:03;100800;;;0.25933;90.9
70943;BME280;59154;51.970;5.650;2022-12-10T03:55:02;100800;;;0.2695;91.2
70943;BME280;59154;51.970;5.650;2022-12-10T04:00:05;100800;;;0.31527;91.2
70943;BME280;59154;51.970;5.650;2022-12-10T04:05:03;100800;;;0.37121;91.1
70943;BME280;59154;51.970;5.650;2022-12-10T04:10:04;100800;;;0.36612;91.3
70943;BME280;59154;51.970;5.650;2022-12-10T04:15:03;100800;;;0.39663;91.2
70943;BME280;59154;51.970;5.650;2022-12-10T04:20:04;100800;;;0.46782;91.1
70943;BME280;59154;51.970;5.650;2022-12-10T04:25:03;100800;;;0.49833;90.7
70943;BME280;59154;51.970;5.650;2022-12-10T04:30:04;100800;;;0.47799;91.1
70943;BME280;59154;51.970;5.650;2022-12-10T04:35:03;100900;;;0.49325;91.2
70943;BME280;59154;51.970;5.650;2022-12-10T04:40:04;100900;;;0.4424;91.6
70943;BME280;59154;51.970;5.650;2022-12-10T04:45:02;100800;;;0.44748;91.4
70943;BME280;59154;51.970;5.650;2022-12-10T04:50:04;100800;;;0.36612;91.6
70943;BME280;59154;51.970;5.650;2022-12-10T04:55:03;100800;;;0.43223;91.8
70943;BME280;59154;51.970;5.650;2022-12-10T05:00:04;100900;;;0.47799;91.6
70943;BME280;59154;51.970;5.650;2022-12-10T05:05:03;100900;;;0.60003;91.7
70943;BME280;59154;51.970;5.650;2022-12-10T05:10:04;100900;;;0.62037;91.7
70943;BME280;59154;51.970;5.650;2022-12-10T05:15:03;100900;;;0.64071;91.3
70943;BME280;59154;51.970;5.650;2022-12-10T05:20:03;100900;;;0.55427;91.6
70943;BME280;59154;51.970;5.650;2022-12-10T05:25:02;100900;;;0.60003;91.4
70943;BME280;59154;51.970;5.650;2022-12-10T05:30:03;100900;;;0.60003;91.9
70943;BME280;59154;51.970;5.650;2022-12-10T05:35:03;100900;;;0.56444;92.2
70943;BME280;59154;51.970;5.650;2022-12-10T05:40:04;100900;;;0.53901;92.3
70943;BME280;59154;51.970;5.650;2022-12-10T05:45:03;100900;;;0.47799;92.5
70943;BME280;59154;51.970;5.650;2022-12-10T05:50:04;100900;;;0.49325;92.3
70943;BME280;59154;51.970;5.650;2022-12-10T05:55:03;100900;;;0.47799;92.4
70943;BME280;59154;51.970;5.650;2022-12-10T06:00:04;100900;;;0.48308;92.3
70943;BME280;59154;51.970;5.650;2022-12-10T06:05:02;100900;;;0.47291;92.7
70943;BME280;59154;51.970;5.650;2022-12-10T06:10:03;100900;;;0.39155;92.6
70943;BME280;59154;51.970;5.650;2022-12-10T06:15:03;100900;;;0.46782;92.1
70943;BME280;59154;51.970;5.650;2022-12-10T06:20:04;100900;;;0.46274;92.6
70943;BME280;59154;51.970;5.650;2022-12-10T06:25:03;100900;;;0.47799;92.3
70943;BME280;59154;51.970;5.650;2022-12-10T06:30:03;100900;;;0.4424;92.2
70943;BME280;59154;51.970;5.650;2022-12-10T06:35:03;100900;;;0.43223;92.2
70943;BME280;59154;51.970;5.650;2022-12-10T06:40:04;100900;;;0.33053;92.3
70943;BME280;59154;51.970;5.650;2022-12-10T06:45:03;100900;;;0.32544;92.1
70943;BME280;59154;51.970;5.650;2022-12-10T06:50:03;100900;;;0.44748;92.2
70943;BME280;59154;51.970;5.650;2022-12-10T06:55:02;100900;;;0.44748;92.0
70943;BME280;59154;51.970;5.650;2022-12-10T07:00:05;100900;;;0.48308;91.7
70943;BME280;59154;51.970;5.650;2022-12-10T07:05:03;100900;;;0.39155;91.8
70943;BME280;59154;51.970;5.650;2022-12-10T07:10:04;100900;;;0.4068;91.9
70943;BME280;59154;51.970;5.650;2022-12-10T07:15:04;100900;;;0.37121;91.7
70943;BME280;59154;51.970;5.650;2022-12-10T07:20:03;100900;;;0.34578;91.7
70943;BME280;59154;51.970;5.650;2022-12-10T07:25:03;100900;;;0.37121;92.0
70943;BME280;59154;51.970;5.650;2022-12-10T07:30:02;100900;;;0.40172;91.9
70943;BME280;59154;51.970;5.650;2022-12-10T07:35:03;100900;;;0.39663;91.6
70943;BME280;59154;51.970;5.650;2022-12-10T07:40:04;100900;;;0.41189;91.7
70943;BME280;59154;51.970;5.650;2022-12-10T07:45:03;100900;;;0.38138;91.8
70943;BME280;59154;51.970;5.650;2022-12-10T07:50:03;100900;;;0.38646;92.1
70943;BME280;59154;51.970;5.650;2022-12-10T07:55:03;100900;;;0.46782;92.1
70943;BME280;59154;51.970;5.650;2022-12-10T08:00:04;101000;;;0.41697;92.0
70943;BME280;59154;51.970;5.650;2022-12-10T08:05:02;101000;;;0.45257;92.5
70943;BME280;59154;51.970;5.650;2022-12-10T08:10:03;101000;;;0.39663;92.3
70943;BME280;59154;51.970;5.650;2022-12-10T08:15:02;101000;;;0.35595;92.5
70943;BME280;59154;51.970;5.650;2022-12-10T08:20:03;101000;;;0.4068;92.3
70943;BME280;59154;51.970;5.650;2022-12-10T08:25:03;101000;;;0.4068;92.1
70943;BME280;59154;51.970;5.650;2022-12-10T08:30:03;101000;;;0.49833;92.1
70943;BME280;59154;51.970;5.650;2022-12-10T08:35:03;101000;;;0.53901;91.9
70943;BME280;59154;51.970;5.650;2022-12-10T08:40:04;101000;;;0.40172;92.0
70943;BME280;59154;51.970;5.650;2022-12-10T08:45:04;101000;;;0.42206;91.8
70943;BME280;59154;51.970;5.650;2022-12-10T08:50:04;101000;;;0.49833;91.8
70943;BME280;59154;51.970;5.650;2022-12-10T08:55:03;101000;;;0.57461;91.8
70943;BME280;59154;51.970;5.650;2022-12-10T09:00:04;101000;;;0.64071;91.9
70943;BME280;59154;51.970;5.650;2022-12-10T09:05:03;101000;;;0.62037;91.8
70943;BME280;59154;51.970;5.650;2022-12-10T09:10:04;101000;;;0.64071;92.1
70943;BME280;59154;51.970;5.650;2022-12-10T09:15:03;101000;;;0.72207;92.2
70943;BME280;59154;51.970;5.650;2022-12-10T09:20:05;101000;;;0.70682;91.1
70943;BME280;59154;51.970;5.650;2022-12-10T09:25:03;101000;;;0.86445;91.8
70943;BME280;59154;51.970;5.650;2022-12-10T09:30:04;101000;;;0.88479;91.8
70943;BME280;59154;51.970;5.650;2022-12-10T09:35:03;101000;;;0.97124;91.6
70943;BME280;59154;51.970;5.650;2022-12-10T09:40:04;101000;;;1.04243;91.4
70943;BME280;59154;51.970;5.650;2022-12-10T09:45:09;101000;;;1.07802;91.4
70943;BME280;59154;51.970;5.650;2022-12-10T09:50:11;101000;;;1.07294;91.0
70943;BME280;59154;51.970;5.650;2022-12-10T09:55:09;101000;;;1.11871;91.3
70943;BME280;59154;51.970;5.650;2022-12-10T10:00:05;101000;;;1.20515;91.0
70943;BME280;59154;51.970;5.650;2022-12-10T10:05:10;101000;;;1.41364;90.9
70943;BME280;59154;51.970;5.650;2022-12-10T10:10:07;101000;;;1.47974;90.8
70943;BME280;59154;51.970;5.650;2022-12-10T10:15:12;101000;;;1.495;89.9
70943;BME280;59154;51.970;5.650;2022-12-10T10:20:04;101000;;;1.56619;89.5
70943;BME280;59154;51.970;5.650;2022-12-10T10:25:05;101100;;;1.46449;89.7
70943;BME280;59154;51.970;5.650;2022-12-10T10:30:06;101100;;;1.48991;89.9
70943;BME280;59154;51.970;5.650;2022-12-10T10:35:04;101000;;;1.46449;90.0
70943;BME280;59154;51.970;5.650;2022-12-10T10:40:04;101000;;;1.47974;89.9
70943;BME280;59154;51.970;5.650;2022-12-10T10:45:06;101100;;;1.4594;90.2
70943;BME280;59154;51.970;5.650;2022-12-10T10:50:04;101100;;;1.43398;89.9
70943;BME280;59154;51.970;5.650;2022-12-10T10:55:03;101000;;;1.57128;89.9
70943;BME280;59154;51.970;5.650;2022-12-10T11:00:06;101000;;;1.63738;89.8
70943;BME280;59154;51.970;5.650;2022-12-10T11:05:06;101000;;;1.66281;89.5
70943;BME280;59154;51.970;5.650;2022-12-10T11:10:04;101000;;;1.59162;89.5
70943;BME280;59154;51.970;5.650;2022-12-10T11:15:29;101000;;;1.68315;89.1
70943;BME280;59154;51.970;5.650;2022-12-10T11:20:17;101000;;;1.68315;89.1
70943;BME280;59154;51.970;5.650;2022-12-10T11:25:04;101000;;;1.67806;89.1
70943;BME280;59154;51.970;5.650;2022-12-10T11:30:05;101000;;;1.64247;89.2
70943;BME280;59154;51.970;5.650;2022-12-10T11:35:11;101000;;;1.71874;89.4
70943;BME280;59154;51.970;5.650;2022-12-10T11:40:17;101000;;;1.73908;89.6
70943;BME280;59154;51.970;5.650;2022-12-10T11:45:09;101000;;;1.77468;89.4
70943;BME280;59154;51.970;5.650;2022-12-10T11:50:14;101000;;;1.77976;89.3
70943;BME280;59154;51.970;5.650;2022-12-10T11:55:10;101000;;;1.89164;89.1
70943;BME280;59154;51.970;5.650;2022-12-10T12:00:16;101000;;;1.86621;89.0
70943;BME280;59154;51.970;5.650;2022-12-10T12:05:17;101000;;;1.8713;88.7
70943;BME280;59154;51.970;5.650;2022-12-10T12:10:32;101000;;;1.88655;89.0
70943;BME280;59154;51.970;5.650;2022-12-10T12:15:11;101000;;;1.9374;88.9
70943;BME280;59154;51.970;5.650;2022-12-10T12:20:11;101000;;;1.82553;88.6
70943;BME280;59154;51.970;5.650;2022-12-10T12:25:05;101000;;;1.76959;88.9
70943;BME280;59154;51.970;5.650;2022-12-10T12:30:10;101000;;;1.8357;89.1
70943;BME280;59154;51.970;5.650;2022-12-10T12:35:09;101000;;;1.80519;89.1
70943;BME280;59154;51.970;5.650;2022-12-10T12:40:10;101000;;;1.76959;89.3
70943;BME280;59154;51.970;5.650;2022-12-10T12:45:10;101000;;;1.66789;89.6
70943;BME280;59154;51.970;5.650;2022-12-10T12:50:05;101000;;;1.65772;89.3
70943;BME280;59154;51.970;5.650;2022-12-10T12:55:09;101000;;;1.5967;89.4
70943;BME280;59154;51.970;5.650;2022-12-10T13:00:09;101000;;;1.69332;89.6
70943;BME280;59154;51.970;5.650;2022-12-10T13:05:03;101000;;;1.77976;89.4
70943;BME280;59154;51.970;5.650;2022-12-10T13:10:45;101000;;;1.69332;89.5
70943;BME280;59154;51.970;5.650;2022-12-10T13:15:17;101000;;;1.72383;89.7
70943;BME280;59154;51.970;5.650;2022-12-10T13:20:40;101000;;;1.70349;89.7
70943;BME280;59154;51.970;5.650;2022-12-10T13:25:12;101000;;;1.62721;90.0
70943;BME280;59154;51.970;5.650;2022-12-10T13:30:39;101000;;;1.68823;90.0
70943;BME280;59154;51.970;5.650;2022-12-10T13:35:43;101000;;;1.67806;90.2
70943;BME280;59154;51.970;5.650;2022-12-10T13:40:23;101000;;;1.78994;90.0
70943;BME280;59154;51.970;5.650;2022-12-10T13:45:05;101000;;;1.73908;90.3
70943;BME280;59154;51.970;5.650;2022-12-10T13:50:05;101000;;;1.8357;90.1
70943;BME280;59154;51.970;5.650;2022-12-10T13:55:17;101000;;;1.8357;90.0
70943;BME280;59154;51.970;5.650;2022-12-10T14:00:08;101000;;;1.90689;90.1
70943;BME280;59154;51.970;5.650;2022-12-10T14:05:12;101000;;;1.79502;89.9
70943;BME280;59154;51.970;5.650;2022-12-10T14:10:03;101000;;;1.69332;90.3
70943;BME280;59154;51.970;5.650;2022-12-10T14:15:04;101000;;;1.71874;90.5
70943;BME280;59154;51.970;5.650;2022-12-10T14:20:06;101000;;;1.80011;90.6
70943;BME280;59154;51.970;5.650;2022-12-10T14:25:05;101100;;;1.81536;90.5
70943;BME280;59154;51.970;5.650;2022-12-10T14:30:17;101100;;;1.83062;90.7
70943;BME280;59154;51.970;5.650;2022-12-10T14:35:05;101100;;;1.84587;90.9
70943;BME280;59154;51.970;5.650;2022-12-10T14:40:05;101100;;;1.80011;90.7
70943;BME280;59154;51.970;5.650;2022-12-10T14:45:04;101100;;;1.80011;90.7
70943;BME280;59154;51.970;5.650;2022-12-10T14:50:05;101100;;;1.80011;91.0
70943;BME280;59154;51.970;5.650;2022-12-10T14:55:04;101100;;;1.76451;91.3
70943;BME280;59154;51.970;5.650;2022-12-10T15:00:05;101100;;;1.83062;91.1
70943;BME280;59154;51.970;5.650;2022-12-10T15:05:03;101100;;;1.84079;90.8
70943;BME280;59154;51.970;5.650;2022-12-10T15:10:07;101100;;;1.81536;90.8
70943;BME280;59154;51.970;5.650;2022-12-10T15:15:09;101100;;;1.72383;91.3
70943;BME280;59154;51.970;5.650;2022-12-10T15:20:17;101100;;;1.66281;91.5
70943;BME280;59154;51.970;5.650;2022-12-10T15:25:14;101100;;;1.67806;91.2
70943;BME280;59154;51.970;5.650;2022-12-10T15:30:22;101100;;;1.74925;91.2
70943;BME280;59154;51.970;5.650;2022-12-10T15:35:10;101100;;;1.66789;91.6
70943;BME280;59154;51.970;5.650;2022-12-10T15:40:05;101100;;;1.68315;91.7
70943;BME280;59154;51.970;5.650;2022-12-10T15:45:19;101100;;;1.88655;91.5
70943;BME280;59154;51.970;5.650;2022-12-10T15:50:04;101100;;;1.94249;91.2
70943;BME280;59154;51.970;5.650;2022-12-10T15:55:04;101100;;;1.9374;91.1
70943;BME280;59154;51.970;5.650;2022-12-10T16:00:06;101100;;;1.98317;91.1
70943;BME280;59154;51.970;5.650;2022-12-10T16:05:04;101100;;;2.01876;91.0
70943;BME280;59154;51.970;5.650;2022-12-10T16:10:04;101100;;;2.0747;90.9
70943;BME280;59154;51.970;5.650;2022-12-10T16:15:03;101100;;;2.00351;91.1
70943;BME280;59154;51.970;5.650;2022-12-10T16:20:14;101100;;;2.01368;91.3
70943;BME280;59154;51.970;5.650;2022-12-10T16:25:03;101100;;;1.99334;91.5
70943;BME280;59154;51.970;5.650;2022-12-10T16:30:12;101100;;;2.05436;91.2
70943;BME280;59154;51.970;5.650;2022-12-10T16:35:03;101100;;;2.09504;91.3
70943;BME280;59154;51.970;5.650;2022-12-10T16:40:03;101100;;;2.09504;91.2
70943;BME280;59154;51.970;5.650;2022-12-10T16:45:08;101100;;;2.0747;91.4
70943;BME280;59154;51.970;5.650;2022-12-10T16:50:03;101100;;;2.08487;91.4
70943;BME280;59154;51.970;5.650;2022-12-10T16:55:03;101100;;;2.10521;91.5
70943;BME280;59154;51.970;5.650;2022-12-10T17:00:04;101100;;;2.12555;91.5
70943;BME280;59154;51.970;5.650;2022-12-10T17:05:05;101100;;;2.1103;91.7
70943;BME280;59154;51.970;5.650;2022-12-10T17:10:03;101100;;;2.16623;91.5
70943;BME280;59154;51.970;5.650;2022-12-10T17:15:04;101100;;;2.10521;91.7
70943;BME280;59154;51.970;5.650;2022-12-10T17:20:14;101100;;;2.15606;91.6
70943;BME280;59154;51.970;5.650;2022-12-10T17:25:02;101100;;;2.23742;91.7
70943;BME280;59154;51.970;5.650;2022-12-10T17:30:04;101100;;;2.19674;91.9
70943;BME280;59154;51.970;5.650;2022-12-10T17:35:03;101100;;;2.27302;91.6
70943;BME280;59154;51.970;5.650;2022-12-10T17:40:10;101100;;;2.28828;91.5
70943;BME280;59154;51.970;5.650;2022-12-10T17:45:03;101100;;;2.27811;91.7
70943;BME280;59154;51.970;5.650;2022-12-10T17:50:03;101100;;;2.33913;91.4
70943;BME280;59154;51.970;5.650;2022-12-10T17:55:03;101100;;;2.37981;91.3
70943;BME280;59154;51.970;5.650;2022-12-10T18:00:09;101100;;;2.42049;91.2
70943;BME280;59154;51.970;5.650;2022-12-10T18:05:03;101100;;;2.43066;91.2
70943;BME280;59154;51.970;5.650;2022-12-10T18:10:03;101100;;;2.34421;91.3
70943;BME280;59154;51.970;5.650;2022-12-10T18:15:03;101100;;;2.26794;91.7
70943;BME280;59154;51.970;5.650;2022-12-10T18:20:04;101100;;;2.15098;92.4
70943;BME280;59154;51.970;5.650;2022-12-10T18:25:03;101100;;;2.05945;92.6
70943;BME280;59154;51.970;5.650;2022-12-10T18:30:04;101100;;;2.1103;92.7
70943;BME280;59154;51.970;5.650;2022-12-10T18:35:03;101100;;;2.06962;92.8
70943;BME280;59154;51.970;5.650;2022-12-10T18:40:03;101100;;;1.98317;92.9
70943;BME280;59154;51.970;5.650;2022-12-10T18:45:03;101100;;;1.93232;93.1
70943;BME280;59154;51.970;5.650;2022-12-10T18:50:05;101100;;;1.98825;93.0
70943;BME280;59154;51.970;5.650;2022-12-10T18:55:02;101100;;;2.05436;93.1
70943;BME280;59154;51.970;5.650;2022-12-10T19:00:10;101100;;;2.11538;93.0
70943;BME280;59154;51.970;5.650;2022-12-10T19:05:03;101100;;;1.99334;92.2
70943;BME280;59154;51.970;5.650;2022-12-10T19:10:05;101100;;;2.06962;92.2
70943;BME280;59154;51.970;5.650;2022-12-10T19:15:04;101100;;;2.20691;92.3
70943;BME280;59154;51.970;5.650;2022-12-10T19:20:05;101100;;;2.28319;92.2
70943;BME280;59154;51.970;5.650;2022-12-10T19:25:02;101100;;;2.29845;92.0
70943;BME280;59154;51.970;5.650;2022-12-10T19:30:04;101100;;;2.35438;91.7
70943;BME280;59154;51.970;5.650;2022-12-10T19:35:02;101100;;;2.37472;91.8
70943;BME280;59154;51.970;5.650;2022-12-10T19:40:05;101100;;;2.37981;91.6
70943;BME280;59154;51.970;5.650;2022-12-10T19:45:03;101100;;;2.3137;91.9
70943;BME280;59154;51.970;5.650;2022-12-10T19:50:03;101100;;;2.20691;92.5
70943;BME280;59154;51.970;5.650;2022-12-10T19:55:02;101100;;;2.0747;92.9
70943;BME280;59154;51.970;5.650;2022-12-10T20:00:04;101100;;;2.11538;93.2
70943;BME280;59154;51.970;5.650;2022-12-10T20:05:03;101100;;;2.1764;93.0
70943;BME280;59154;51.970;5.650;2022-12-10T20:10:04;101100;;;2.32387;92.9
70943;BME280;59154;51.970;5.650;2022-12-10T20:15:03;101100;;;2.29336;92.4
70943;BME280;59154;51.970;5.650;2022-12-10T20:20:04;101100;;;2.3493;92.5
70943;BME280;59154;51.970;5.650;2022-12-10T20:25:02;101100;;;2.43066;92.6
70943;BME280;59154;51.970;5.650;2022-12-10T20:30:04;101100;;;2.26285;93.0
70943;BME280;59154;51.970;5.650;2022-12-10T20:35:02;101100;;;2.31879;92.8
70943;BME280;59154;51.970;5.650;2022-12-10T20:40:03;101100;;;2.1103;94.1
70943;BME280;59154;51.970;5.650;2022-12-10T20:45:03;101100;;;2.37981;92.9
70943;BME280;59154;51.970;5.650;2022-12-10T20:50:04;101100;;;2.29845;93.2
70943;BME280;59154;51.970;5.650;2022-12-10T20:55:03;101100;;;2.21708;93.3
70943;BME280;59154;51.970;5.650;2022-12-10T21:00:06;101100;;;2.40015;93.0
70943;BME280;59154;51.970;5.650;2022-12-10T21:05:02;101100;;;2.42557;92.6
70943;BME280;59154;51.970;5.650;2022-12-10T21:10:05;101100;;;2.54253;92.2
70943;BME280;59154;51.970;5.650;2022-12-10T21:15:02;101100;;;2.52728;92.3
70943;BME280;59154;51.970;5.650;2022-12-10T21:20:04;101100;;;2.59847;92.1
70943;BME280;59154;51.970;5.650;2022-12-10T21:25:03;101100;;;2.64423;91.5
70943;BME280;59154;51.970;5.650;2022-12-10T21:30:03;101100;;;2.67475;91.5
70943;BME280;59154;51.970;5.650;2022-12-10T21:35:02;101100;;;2.66966;91.7
70943;BME280;59154;51.970;5.650;2022-12-10T21:40:04;101100;;;2.73577;91.5
70943;BME280;59154;51.970;5.650;2022-12-10T21:45:03;101100;;;2.7256;91.3
70943;BME280;59154;51.970;5.650;2022-12-10T21:50:03;101100;;;2.66458;91.7
70943;BME280;59154;51.970;5.650;2022-12-10T21:55:03;101100;;;2.78662;91.4
70943;BME280;59154;51.970;5.650;2022-12-10T22:00:03;101100;;;2.69509;91.7
70943;BME280;59154;51.970;5.650;2022-12-10T22:05:03;101100;;;2.77645;91.4
70943;BME280;59154;51.970;5.650;2022-12-10T22:10:03;101100;;;2.77645;91.3
70943;BME280;59154;51.970;5.650;2022-12-10T22:15:03;101100;;;2.73577;91.6
70943;BME280;59154;51.970;5.650;2022-12-10T22:20:05;101100;;;2.73577;91.6
70943;BME280;59154;51.970;5.650;2022-12-10T22:25:03;101100;;;2.59338;91.9
70943;BME280;59154;51.970;5.650;2022-12-10T22:30:04;101100;;;2.64423;92.1
70943;BME280;59154;51.970;5.650;2022-12-10T22:35:04;101100;;;2.77645;91.7
70943;BME280;59154;51.970;5.650;2022-12-10T22:40:04;101100;;;2.8273;91.5
70943;BME280;59154;51.970;5.650;2022-12-10T22:45:03;101100;;;2.79679;91.8
70943;BME280;59154;51.970;5.650;2022-12-10T22:50:04;101100;;;2.84764;91.8
70943;BME280;59154;51.970;5.650;2022-12-10T22:55:03;101100;;;2.86798;92.2
70943;BME280;59154;51.970;5.650;2022-12-10T23:00:06;101100;;;2.90866;91.8
70943;BME280;59154;51.970;5.650;2022-12-10T23:05:02;101100;;;2.929;91.9
70943;BME280;59154;51.970;5.650;2022-12-10T23:10:03;101100;;;2.84764;92.6
70943;BME280;59154;51.970;5.650;2022-12-10T23:15:03;101100;;;2.91883;92.4
70943;BME280;59154;51.970;5.650;2022-12-10T23:20:04;101100;;;2.91883;92.5
70943;BME280;59154;51.970;5.650;2022-12-10T23:25:03;101100;;;2.89849;92.5
70943;BME280;59154;51.970;5.650;2022-12-10T23:30:03;101100;;;2.8273;92.9
70943;BME280;59154;51.970;5.650;2022-12-10T23:35:03;101100;;;2.88832;92.6
70943;BME280;59154;51.970;5.650;2022-12-10T23:40:04;101100;;;2.89341;92.9
70943;BME280;59154;51.970;5.650;2022-12-10T23:45:02;101100;;;2.96968;92.5
70943;BME280;59154;51.970;5.650;2022-12-10T23:50:03;101100;;;2.93917;92.7
70943;BME280;59154;51.970;5.650;2022-12-10T23:55:02;101100;;;2.90866;92.8
